sensor_id;sensor_type;location;lat;lon;timestamp;temperature;humidity
24402;DHT22;12539;48.808;11.292;2022-12-07T00:01:39;5.80;99.90
24402;DHT22;12539;48.808;11.292;2022-12-07T00:04:09;5.70;99.90
24402;DHT22;12539;48.808;11.292;2022-12-07T00:06:46;5.70;99.90
24402;DHT22;12539;48.808;11.292;2022-12-07T00:09:16;5.70;99.90
24402;DHT22;12539;48.808;11.292;2022-12-07T00:11:43;5.70;99.90
24402;DHT22;12539;48.808;11.292;2022-12-07T00:14:13;5.50;99.90
24402;DHT22;12539;48.808;11.292;2022-12-07T00:16:40;5.50;99.90
24402;DHT22;12539;48.808;11.292;2022-12-07T00:19:05;5.40;99.90
24402;DHT22;12539;48.808;11.292;2022-12-07T00:21:33;5.40;99.90
24402;DHT22;12539;48.808;11.292;2022-12-07T00:24:00;5.40;99.90
24402;DHT22;12539;48.808;11.292;2022-12-07T00:26:28;5.30;99.90
24402;DHT22;12539;48.808;11.292;2022-12-07T00:28:57;5.30;99.90
24402;DHT22;12539;48.808;11.292;2022-12-07T00:31:26;5.40;99.90
24402;DHT22;12539;48.808;11.292;2022-12-07T00:33:53;5.40;99.90
24402;DHT22;12539;48.808;11.292;2022-12-07T00:36:21;5.30;99.90
24402;DHT22;12539;48.808;11.292;2022-12-07T00:38:47;5.30;99.90
24402;DHT22;12539;48.808;11.292;2022-12-07T00:41:15;5.20;99.90
24402;DHT22;12539;48.808;11.292;2022-12-07T00:43:42;5.20;99.90
24402;DHT22;12539;48.808;11.292;2022-12-07T00:46:08;5.20;99.90
24402;DHT22;12539;48.808;11.292;2022-12-07T00:48:34;5.20;99.90
24402;DHT22;12539;48.808;11.292;2022-12-07T00:51:00;5.20;99.90
24402;DHT22;12539;48.808;11.292;2022-12-07T00:53:26;5.20;99.90
24402;DHT22;12539;48.808;11.292;2022-12-07T00:55:52;5.20;99.90
24402;DHT22;12539;48.808;11.292;2022-12-07T00:58:19;5.20;99.90
24402;DHT22;12539;48.808;11.292;2022-12-07T01:00:45;5.20;99.90
24402;DHT22;12539;48.808;11.292;2022-12-07T01:03:12;5.20;99.90
24402;DHT22;12539;48.808;11.292;2022-12-07T01:05:38;5.20;99.90
24402;DHT22;12539;48.808;11.292;2022-12-07T01:08:04;5.20;99.90
24402;DHT22;12539;48.808;11.292;2022-12-07T01:10:30;5.30;99.90
24402;DHT22;12539;48.808;11.292;2022-12-07T01:12:57;5.30;99.90
24402;DHT22;12539;48.808;11.292;2022-12-07T01:15:24;5.20;99.90
24402;DHT22;12539;48.808;11.292;2022-12-07T01:17:49;5.20;99.90
24402;DHT22;12539;48.808;11.292;2022-12-07T01:20:15;5.20;99.90
24402;DHT22;12539;48.808;11.292;2022-12-07T01:22:42;5.10;99.90
24402;DHT22;12539;48.808;11.292;2022-12-07T01:25:09;5.10;99.90
24402;DHT22;12539;48.808;11.292;2022-12-07T01:27:35;5.10;99.90
24402;DHT22;12539;48.808;11.292;2022-12-07T01:30:03;5.10;99.90
24402;DHT22;12539;48.808;11.292;2022-12-07T01:32:29;5.20;99.90
24402;DHT22;12539;48.808;11.292;2022-12-07T01:34:55;5.30;99.90
24402;DHT22;12539;48.808;11.292;2022-12-07T01:37:21;5.40;99.90
24402;DHT22;12539;48.808;11.292;2022-12-07T01:39:50;5.40;99.90
24402;DHT22;12539;48.808;11.292;2022-12-07T01:42:16;5.40;99.90
24402;DHT22;12539;48.808;11.292;2022-12-07T01:47:56;5.40;99.90
24402;DHT22;12539;48.808;11.292;2022-12-07T01:50:25;5.40;99.90
24402;DHT22;12539;48.808;11.292;2022-12-07T01:52:54;5.30;99.90
24402;DHT22;12539;48.808;11.292;2022-12-07T01:55:22;5.50;99.90
24402;DHT22;12539;48.808;11.292;2022-12-07T01:57:51;5.50;99.90
24402;DHT22;12539;48.808;11.292;2022-12-07T02:00:18;5.50;99.90
24402;DHT22;12539;48.808;11.292;2022-12-07T02:05:14;5.40;99.90
24402;DHT22;12539;48.808;11.292;2022-12-07T02:07:40;5.30;99.90
24402;DHT22;12539;48.808;11.292;2022-12-07T02:12:51;5.20;99.90
24402;DHT22;12539;48.808;11.292;2022-12-07T02:15:20;5.20;99.90
24402;DHT22;12539;48.808;11.292;2022-12-07T02:18:07;5.20;99.90
24402;DHT22;12539;48.808;11.292;2022-12-07T02:29:50;5.00;99.90
24402;DHT22;12539;48.808;11.292;2022-12-07T02:37:51;4.80;99.90
24402;DHT22;12539;48.808;11.292;2022-12-07T02:40:40;4.90;99.90
24402;DHT22;12539;48.808;11.292;2022-12-07T02:45:39;5.00;99.90
24402;DHT22;12539;48.808;11.292;2022-12-07T02:48:08;5.00;99.90
24402;DHT22;12539;48.808;11.292;2022-12-07T02:50:35;5.10;99.90
24402;DHT22;12539;48.808;11.292;2022-12-07T02:53:01;5.20;99.90
24402;DHT22;12539;48.808;11.292;2022-12-07T02:55:37;5.20;99.90
24402;DHT22;12539;48.808;11.292;2022-12-07T03:04:32;5.10;99.90
24402;DHT22;12539;48.808;11.292;2022-12-07T03:10:19;5.10;99.90
24402;DHT22;12539;48.808;11.292;2022-12-07T03:15:33;5.30;99.90
24402;DHT22;12539;48.808;11.292;2022-12-07T03:18:02;5.20;99.90
24402;DHT22;12539;48.808;11.292;2022-12-07T03:20:29;5.20;99.90
24402;DHT22;12539;48.808;11.292;2022-12-07T03:22:56;5.20;99.90
24402;DHT22;12539;48.808;11.292;2022-12-07T03:25:23;5.20;99.90
24402;DHT22;12539;48.808;11.292;2022-12-07T03:27:57;5.20;99.90
24402;DHT22;12539;48.808;11.292;2022-12-07T03:30:46;5.20;99.90
24402;DHT22;12539;48.808;11.292;2022-12-07T03:33:29;5.20;99.90
24402;DHT22;12539;48.808;11.292;2022-12-07T03:36:06;5.30;99.90
24402;DHT22;12539;48.808;11.292;2022-12-07T03:38:43;5.40;99.90
24402;DHT22;12539;48.808;11.292;2022-12-07T03:41:23;5.30;99.90
24402;DHT22;12539;48.808;11.292;2022-12-07T03:43:50;5.40;99.90
24402;DHT22;12539;48.808;11.292;2022-12-07T03:46:43;5.40;99.90
24402;DHT22;12539;48.808;11.292;2022-12-07T03:52:00;5.40;99.90
24402;DHT22;12539;48.808;11.292;2022-12-07T03:54:41;5.40;99.90
24402;DHT22;12539;48.808;11.292;2022-12-07T03:57:10;5.30;99.90
24402;DHT22;12539;48.808;11.292;2022-12-07T03:59:38;5.30;99.90
24402;DHT22;12539;48.808;11.292;2022-12-07T04:02:06;5.30;99.90
24402;DHT22;12539;48.808;11.292;2022-12-07T04:04:33;5.40;99.90
24402;DHT22;12539;48.808;11.292;2022-12-07T04:06:59;5.50;99.90
24402;DHT22;12539;48.808;11.292;2022-12-07T04:09:25;5.60;99.90
24402;DHT22;12539;48.808;11.292;2022-12-07T04:11:51;5.60;99.90
24402;DHT22;12539;48.808;11.292;2022-12-07T04:14:17;5.50;99.90
24402;DHT22;12539;48.808;11.292;2022-12-07T04:16:50;5.50;99.90
24402;DHT22;12539;48.808;11.292;2022-12-07T04:19:18;5.40;99.90
24402;DHT22;12539;48.808;11.292;2022-12-07T04:21:44;5.30;99.90
24402;DHT22;12539;48.808;11.292;2022-12-07T04:24:11;5.10;99.90
24402;DHT22;12539;48.808;11.292;2022-12-07T04:26:36;4.90;99.90
24402;DHT22;12539;48.808;11.292;2022-12-07T04:29:02;4.90;99.90
24402;DHT22;12539;48.808;11.292;2022-12-07T04:31:28;4.90;99.90
24402;DHT22;12539;48.808;11.292;2022-12-07T04:33:54;4.90;99.90
24402;DHT22;12539;48.808;11.292;2022-12-07T04:36:19;4.90;99.90
24402;DHT22;12539;48.808;11.292;2022-12-07T04:38:46;4.90;99.90
24402;DHT22;12539;48.808;11.292;2022-12-07T04:41:12;4.80;99.90
24402;DHT22;12539;48.808;11.292;2022-12-07T04:43:37;4.70;99.90
24402;DHT22;12539;48.808;11.292;2022-12-07T04:46:03;4.50;99.90
24402;DHT22;12539;48.808;11.292;2022-12-07T04:48:30;4.40;99.90
24402;DHT22;12539;48.808;11.292;2022-12-07T04:50:55;4.30;99.90
24402;DHT22;12539;48.808;11.292;2022-12-07T04:53:21;4.20;99.90
24402;DHT22;12539;48.808;11.292;2022-12-07T04:55:47;4.10;99.90
24402;DHT22;12539;48.808;11.292;2022-12-07T04:58:13;4.00;99.90
24402;DHT22;12539;48.808;11.292;2022-12-07T05:00:39;4.00;99.90
24402;DHT22;12539;48.808;11.292;2022-12-07T05:03:05;4.00;99.90
24402;DHT22;12539;48.808;11.292;2022-12-07T05:05:31;4.00;99.90
24402;DHT22;12539;48.808;11.292;2022-12-07T05:07:56;4.00;99.90
24402;DHT22;12539;48.808;11.292;2022-12-07T05:10:22;4.00;99.90
24402;DHT22;12539;48.808;11.292;2022-12-07T05:12:48;3.90;99.90
24402;DHT22;12539;48.808;11.292;2022-12-07T05:15:14;3.80;99.90
24402;DHT22;12539;48.808;11.292;2022-12-07T05:17:40;3.80;99.90
24402;DHT22;12539;48.808;11.292;2022-12-07T05:20:07;3.80;99.90
24402;DHT22;12539;48.808;11.292;2022-12-07T05:22:34;3.80;99.90
24402;DHT22;12539;48.808;11.292;2022-12-07T05:24:59;3.80;99.90
24402;DHT22;12539;48.808;11.292;2022-12-07T05:27:25;3.70;99.90
24402;DHT22;12539;48.808;11.292;2022-12-07T05:29:51;3.70;99.90
24402;DHT22;12539;48.808;11.292;2022-12-07T05:32:17;3.60;99.90
24402;DHT22;12539;48.808;11.292;2022-12-07T05:34:43;3.60;99.90
24402;DHT22;12539;48.808;11.292;2022-12-07T05:37:08;3.40;99.90
24402;DHT22;12539;48.808;11.292;2022-12-07T05:39:34;3.30;99.90
24402;DHT22;12539;48.808;11.292;2022-12-07T05:42:00;3.30;99.90
24402;DHT22;12539;48.808;11.292;2022-12-07T05:44:38;3.40;99.90
24402;DHT22;12539;48.808;11.292;2022-12-07T05:47:04;3.50;99.90
24402;DHT22;12539;48.808;11.292;2022-12-07T05:49:30;3.60;99.90
24402;DHT22;12539;48.808;11.292;2022-12-07T05:51:56;3.70;99.90
24402;DHT22;12539;48.808;11.292;2022-12-07T05:54:21;3.70;99.90
24402;DHT22;12539;48.808;11.292;2022-12-07T05:56:47;3.70;99.90
24402;DHT22;12539;48.808;11.292;2022-12-07T05:59:13;3.80;99.90
24402;DHT22;12539;48.808;11.292;2022-12-07T06:02:04;3.80;99.90
24402;DHT22;12539;48.808;11.292;2022-12-07T06:04:33;3.70;99.90
24402;DHT22;12539;48.808;11.292;2022-12-07T06:06:59;3.80;99.90
24402;DHT22;12539;48.808;11.292;2022-12-07T06:09:26;4.00;99.90
24402;DHT22;12539;48.808;11.292;2022-12-07T06:11:52;4.10;99.90
24402;DHT22;12539;48.808;11.292;2022-12-07T06:14:37;4.10;99.90
24402;DHT22;12539;48.808;11.292;2022-12-07T06:17:03;4.20;99.90
24402;DHT22;12539;48.808;11.292;2022-12-07T06:19:29;4.10;99.90
24402;DHT22;12539;48.808;11.292;2022-12-07T06:21:55;4.00;99.90
24402;DHT22;12539;48.808;11.292;2022-12-07T06:24:21;3.90;99.90
24402;DHT22;12539;48.808;11.292;2022-12-07T06:26:47;4.00;99.90
24402;DHT22;12539;48.808;11.292;2022-12-07T06:29:13;4.00;99.90
24402;DHT22;12539;48.808;11.292;2022-12-07T06:31:40;4.20;99.90
24402;DHT22;12539;48.808;11.292;2022-12-07T06:34:11;4.40;99.90
24402;DHT22;12539;48.808;11.292;2022-12-07T06:36:37;4.60;99.90
24402;DHT22;12539;48.808;11.292;2022-12-07T06:39:03;4.60;99.90
24402;DHT22;12539;48.808;11.292;2022-12-07T06:41:29;4.70;99.90
24402;DHT22;12539;48.808;11.292;2022-12-07T06:43:55;4.60;99.90
24402;DHT22;12539;48.808;11.292;2022-12-07T06:46:21;4.50;99.90
24402;DHT22;12539;48.808;11.292;2022-12-07T06:48:46;4.40;99.90
24402;DHT22;12539;48.808;11.292;2022-12-07T06:51:12;4.30;99.90
24402;DHT22;12539;48.808;11.292;2022-12-07T06:53:38;4.20;99.90
24402;DHT22;12539;48.808;11.292;2022-12-07T06:56:04;4.10;99.90
24402;DHT22;12539;48.808;11.292;2022-12-07T06:58:30;4.20;99.90
24402;DHT22;12539;48.808;11.292;2022-12-07T07:00:56;4.10;99.90
24402;DHT22;12539;48.808;11.292;2022-12-07T07:03:22;4.10;99.90
24402;DHT22;12539;48.808;11.292;2022-12-07T07:05:48;4.20;99.90
24402;DHT22;12539;48.808;11.292;2022-12-07T07:08:14;4.30;99.90
24402;DHT22;12539;48.808;11.292;2022-12-07T07:10:40;4.60;99.90
24402;DHT22;12539;48.808;11.292;2022-12-07T07:13:06;4.80;99.90
24402;DHT22;12539;48.808;11.292;2022-12-07T07:15:32;5.00;99.90
24402;DHT22;12539;48.808;11.292;2022-12-07T07:17:59;5.10;99.90
24402;DHT22;12539;48.808;11.292;2022-12-07T07:20:25;5.20;99.90
24402;DHT22;12539;48.808;11.292;2022-12-07T07:22:50;5.20;99.90
24402;DHT22;12539;48.808;11.292;2022-12-07T07:25:19;5.20;99.90
24402;DHT22;12539;48.808;11.292;2022-12-07T07:27:44;5.30;99.90
24402;DHT22;12539;48.808;11.292;2022-12-07T07:30:10;5.20;99.90
24402;DHT22;12539;48.808;11.292;2022-12-07T07:32:36;5.10;99.90
24402;DHT22;12539;48.808;11.292;2022-12-07T07:35:03;5.00;99.90
24402;DHT22;12539;48.808;11.292;2022-12-07T07:37:28;5.00;99.90
24402;DHT22;12539;48.808;11.292;2022-12-07T07:39:54;5.10;99.90
24402;DHT22;12539;48.808;11.292;2022-12-07T07:42:20;5.30;99.90
24402;DHT22;12539;48.808;11.292;2022-12-07T07:44:45;5.40;99.90
24402;DHT22;12539;48.808;11.292;2022-12-07T07:47:11;5.60;99.90
24402;DHT22;12539;48.808;11.292;2022-12-07T07:49:37;5.70;99.90
24402;DHT22;12539;48.808;11.292;2022-12-07T07:52:02;5.80;99.90
24402;DHT22;12539;48.808;11.292;2022-12-07T07:54:29;5.90;99.90
24402;DHT22;12539;48.808;11.292;2022-12-07T07:56:54;6.00;99.90
24402;DHT22;12539;48.808;11.292;2022-12-07T07:59:20;6.10;99.90
24402;DHT22;12539;48.808;11.292;2022-12-07T08:01:46;6.10;99.90
24402;DHT22;12539;48.808;11.292;2022-12-07T08:04:11;6.20;99.90
24402;DHT22;12539;48.808;11.292;2022-12-07T08:06:37;6.30;99.90
24402;DHT22;12539;48.808;11.292;2022-12-07T08:09:03;6.20;99.90
24402;DHT22;12539;48.808;11.292;2022-12-07T08:11:31;6.30;99.90
24402;DHT22;12539;48.808;11.292;2022-12-07T08:13:56;6.30;99.90
24402;DHT22;12539;48.808;11.292;2022-12-07T08:16:22;6.40;99.90
24402;DHT22;12539;48.808;11.292;2022-12-07T08:18:48;6.50;99.90
24402;DHT22;12539;48.808;11.292;2022-12-07T08:21:15;6.50;99.90
24402;DHT22;12539;48.808;11.292;2022-12-07T08:23:41;6.60;99.90
24402;DHT22;12539;48.808;11.292;2022-12-07T08:26:09;6.60;99.90
24402;DHT22;12539;48.808;11.292;2022-12-07T08:28:35;6.60;99.90
24402;DHT22;12539;48.808;11.292;2022-12-07T08:31:06;6.60;99.90
24402;DHT22;12539;48.808;11.292;2022-12-07T08:33:33;6.70;99.90
24402;DHT22;12539;48.808;11.292;2022-12-07T08:36:04;6.70;99.90
24402;DHT22;12539;48.808;11.292;2022-12-07T08:38:29;6.70;99.90
24402;DHT22;12539;48.808;11.292;2022-12-07T08:40:59;6.60;99.90
24402;DHT22;12539;48.808;11.292;2022-12-07T08:43:26;6.50;99.90
24402;DHT22;12539;48.808;11.292;2022-12-07T08:46:03;6.50;99.90
24402;DHT22;12539;48.808;11.292;2022-12-07T08:48:33;6.50;99.90
24402;DHT22;12539;48.808;11.292;2022-12-07T08:51:01;6.50;99.90
24402;DHT22;12539;48.808;11.292;2022-12-07T08:53:28;6.50;99.90
24402;DHT22;12539;48.808;11.292;2022-12-07T08:55:55;6.40;99.90
24402;DHT22;12539;48.808;11.292;2022-12-07T08:58:22;6.30;99.90
24402;DHT22;12539;48.808;11.292;2022-12-07T09:00:48;6.20;99.90
24402;DHT22;12539;48.808;11.292;2022-12-07T09:03:13;6.20;99.90
24402;DHT22;12539;48.808;11.292;2022-12-07T09:05:39;6.30;99.90
24402;DHT22;12539;48.808;11.292;2022-12-07T09:08:05;6.30;99.90
24402;DHT22;12539;48.808;11.292;2022-12-07T09:10:31;6.40;99.90
24402;DHT22;12539;48.808;11.292;2022-12-07T09:12:57;6.40;99.90
24402;DHT22;12539;48.808;11.292;2022-12-07T09:15:27;6.20;99.90
24402;DHT22;12539;48.808;11.292;2022-12-07T09:17:53;6.20;99.90
24402;DHT22;12539;48.808;11.292;2022-12-07T09:20:19;6.10;99.90
24402;DHT22;12539;48.808;11.292;2022-12-07T09:22:45;6.10;99.90
24402;DHT22;12539;48.808;11.292;2022-12-07T09:25:10;6.00;99.90
24402;DHT22;12539;48.808;11.292;2022-12-07T09:27:36;5.90;99.90
24402;DHT22;12539;48.808;11.292;2022-12-07T09:30:04;5.80;99.90
24402;DHT22;12539;48.808;11.292;2022-12-07T09:32:29;5.80;99.90
24402;DHT22;12539;48.808;11.292;2022-12-07T09:34:55;5.90;99.90
24402;DHT22;12539;48.808;11.292;2022-12-07T09:37:21;6.10;99.90
24402;DHT22;12539;48.808;11.292;2022-12-07T09:39:47;6.20;99.90
24402;DHT22;12539;48.808;11.292;2022-12-07T09:42:28;6.20;99.90
24402;DHT22;12539;48.808;11.292;2022-12-07T09:44:54;6.10;99.90
24402;DHT22;12539;48.808;11.292;2022-12-07T09:47:21;6.00;99.90
24402;DHT22;12539;48.808;11.292;2022-12-07T09:49:47;6.10;99.90
24402;DHT22;12539;48.808;11.292;2022-12-07T09:52:19;6.20;99.90
24402;DHT22;12539;48.808;11.292;2022-12-07T09:54:48;6.50;99.90
24402;DHT22;12539;48.808;11.292;2022-12-07T09:57:15;6.70;99.90
24402;DHT22;12539;48.808;11.292;2022-12-07T09:59:41;6.90;99.90
24402;DHT22;12539;48.808;11.292;2022-12-07T10:02:31;7.00;99.90
24402;DHT22;12539;48.808;11.292;2022-12-07T10:04:59;6.90;99.90
24402;DHT22;12539;48.808;11.292;2022-12-07T10:07:25;6.90;99.90
24402;DHT22;12539;48.808;11.292;2022-12-07T10:09:51;6.90;99.90
24402;DHT22;12539;48.808;11.292;2022-12-07T10:12:16;7.00;99.90
24402;DHT22;12539;48.808;11.292;2022-12-07T10:15:14;7.10;99.90
24402;DHT22;12539;48.808;11.292;2022-12-07T10:17:48;7.10;99.90
24402;DHT22;12539;48.808;11.292;2022-12-07T10:23:02;7.10;99.90
24402;DHT22;12539;48.808;11.292;2022-12-07T10:25:34;7.00;99.90
24402;DHT22;12539;48.808;11.292;2022-12-07T10:33:35;6.80;99.90
24402;DHT22;12539;48.808;11.292;2022-12-07T10:36:19;6.80;99.90
24402;DHT22;12539;48.808;11.292;2022-12-07T10:39:31;7.00;99.90
24402;DHT22;12539;48.808;11.292;2022-12-07T10:41:59;7.10;99.90
24402;DHT22;12539;48.808;11.292;2022-12-07T10:44:27;7.20;99.90
24402;DHT22;12539;48.808;11.292;2022-12-07T10:52:36;7.00;99.90
24402;DHT22;12539;48.808;11.292;2022-12-07T10:55:33;6.90;99.90
24402;DHT22;12539;48.808;11.292;2022-12-07T11:01:43;6.80;99.90
24402;DHT22;12539;48.808;11.292;2022-12-07T11:17:48;7.00;99.90
24402;DHT22;12539;48.808;11.292;2022-12-07T11:20:39;7.00;99.90
24402;DHT22;12539;48.808;11.292;2022-12-07T11:26:13;6.80;99.80
24402;DHT22;12539;48.808;11.292;2022-12-07T11:34:10;6.90;99.50
24402;DHT22;12539;48.808;11.292;2022-12-07T11:36:43;6.80;98.20
24402;DHT22;12539;48.808;11.292;2022-12-07T11:39:29;6.80;97.80
24402;DHT22;12539;48.808;11.292;2022-12-07T11:42:03;6.70;97.70
24402;DHT22;12539;48.808;11.292;2022-12-07T11:53:14;6.50;96.60
24402;DHT22;12539;48.808;11.292;2022-12-07T11:55:56;6.40;97.00
24402;DHT22;12539;48.808;11.292;2022-12-07T12:04:05;6.60;97.60
24402;DHT22;12539;48.808;11.292;2022-12-07T12:06:32;6.70;97.20
24402;DHT22;12539;48.808;11.292;2022-12-07T12:14:26;7.00;99.60
24402;DHT22;12539;48.808;11.292;2022-12-07T12:22:36;7.20;96.90
24402;DHT22;12539;48.808;11.292;2022-12-07T12:25:05;7.20;96.80
24402;DHT22;12539;48.808;11.292;2022-12-07T12:27:36;7.20;97.70
24402;DHT22;12539;48.808;11.292;2022-12-07T12:30:06;7.30;98.40
24402;DHT22;12539;48.808;11.292;2022-12-07T12:32:49;7.40;98.00
24402;DHT22;12539;48.808;11.292;2022-12-07T12:35:32;7.40;98.80
24402;DHT22;12539;48.808;11.292;2022-12-07T12:38:25;7.60;98.90
24402;DHT22;12539;48.808;11.292;2022-12-07T12:40:53;7.70;98.90
24402;DHT22;12539;48.808;11.292;2022-12-07T12:54:27;7.70;98.00
24402;DHT22;12539;48.808;11.292;2022-12-07T13:02:16;7.70;98.00
24402;DHT22;12539;48.808;11.292;2022-12-07T13:10:39;7.80;98.50
24402;DHT22;12539;48.808;11.292;2022-12-07T13:20:59;7.90;99.50
24402;DHT22;12539;48.808;11.292;2022-12-07T13:25:59;8.00;99.70
24402;DHT22;12539;48.808;11.292;2022-12-07T13:28:33;8.00;99.90
24402;DHT22;12539;48.808;11.292;2022-12-07T13:33:35;8.10;99.90
24402;DHT22;12539;48.808;11.292;2022-12-07T13:36:01;8.10;99.90
24402;DHT22;12539;48.808;11.292;2022-12-07T13:38:33;8.10;99.90
24402;DHT22;12539;48.808;11.292;2022-12-07T13:41:20;8.10;99.90
24402;DHT22;12539;48.808;11.292;2022-12-07T13:46:14;8.10;99.90
24402;DHT22;12539;48.808;11.292;2022-12-07T13:48:49;8.10;99.90
24402;DHT22;12539;48.808;11.292;2022-12-07T13:51:23;8.10;99.90
24402;DHT22;12539;48.808;11.292;2022-12-07T13:54:00;8.10;99.90
24402;DHT22;12539;48.808;11.292;2022-12-07T13:56:37;8.10;99.90
24402;DHT22;12539;48.808;11.292;2022-12-07T13:59:38;8.20;99.90
24402;DHT22;12539;48.808;11.292;2022-12-07T14:01:58;8.10;99.90
24402;DHT22;12539;48.808;11.292;2022-12-07T14:06:56;8.10;99.90
24402;DHT22;12539;48.808;11.292;2022-12-07T14:09:23;8.10;99.90
24402;DHT22;12539;48.808;11.292;2022-12-07T14:11:52;8.10;99.90
24402;DHT22;12539;48.808;11.292;2022-12-07T14:14:30;8.10;99.90
24402;DHT22;12539;48.808;11.292;2022-12-07T14:17:19;8.10;99.90
24402;DHT22;12539;48.808;11.292;2022-12-07T14:19:57;8.00;99.90
24402;DHT22;12539;48.808;11.292;2022-12-07T14:22:26;7.90;99.90
24402;DHT22;12539;48.808;11.292;2022-12-07T14:25:16;7.90;99.90
24402;DHT22;12539;48.808;11.292;2022-12-07T14:27:50;7.90;99.90
24402;DHT22;12539;48.808;11.292;2022-12-07T14:30:17;7.80;99.90
24402;DHT22;12539;48.808;11.292;2022-12-07T14:32:43;7.60;99.60
24402;DHT22;12539;48.808;11.292;2022-12-07T14:35:16;7.30;99.20
24402;DHT22;12539;48.808;11.292;2022-12-07T14:37:45;7.20;99.90
24402;DHT22;12539;48.808;11.292;2022-12-07T14:40:26;7.10;99.20
24402;DHT22;12539;48.808;11.292;2022-12-07T14:43:13;6.90;99.20
24402;DHT22;12539;48.808;11.292;2022-12-07T14:45:39;6.80;99.30
24402;DHT22;12539;48.808;11.292;2022-12-07T14:48:06;6.60;98.50
24402;DHT22;12539;48.808;11.292;2022-12-07T14:50:38;6.50;98.60
24402;DHT22;12539;48.808;11.292;2022-12-07T14:53:17;6.40;98.60
24402;DHT22;12539;48.808;11.292;2022-12-07T14:55:43;6.20;98.60
24402;DHT22;12539;48.808;11.292;2022-12-07T14:58:14;6.10;98.60
24402;DHT22;12539;48.808;11.292;2022-12-07T15:00:40;6.10;98.60
24402;DHT22;12539;48.808;11.292;2022-12-07T15:03:05;6.00;98.70
24402;DHT22;12539;48.808;11.292;2022-12-07T15:05:31;5.90;99.40
24402;DHT22;12539;48.808;11.292;2022-12-07T15:08:04;5.90;99.90
24402;DHT22;12539;48.808;11.292;2022-12-07T15:10:32;5.90;99.80
24402;DHT22;12539;48.808;11.292;2022-12-07T15:12:59;5.80;99.40
24402;DHT22;12539;48.808;11.292;2022-12-07T15:15:47;5.80;99.80
24402;DHT22;12539;48.808;11.292;2022-12-07T15:18:13;5.70;99.80
24402;DHT22;12539;48.808;11.292;2022-12-07T15:20:39;5.70;99.90
24402;DHT22;12539;48.808;11.292;2022-12-07T15:23:04;5.80;99.90
24402;DHT22;12539;48.808;11.292;2022-12-07T15:25:30;5.80;99.90
24402;DHT22;12539;48.808;11.292;2022-12-07T15:27:56;5.80;99.90
24402;DHT22;12539;48.808;11.292;2022-12-07T15:30:22;5.70;99.90
24402;DHT22;12539;48.808;11.292;2022-12-07T15:32:54;5.70;99.90
24402;DHT22;12539;48.808;11.292;2022-12-07T15:35:20;5.70;99.90
24402;DHT22;12539;48.808;11.292;2022-12-07T15:37:46;5.70;99.90
24402;DHT22;12539;48.808;11.292;2022-12-07T15:40:12;5.70;99.90
24402;DHT22;12539;48.808;11.292;2022-12-07T15:42:38;5.70;99.90
24402;DHT22;12539;48.808;11.292;2022-12-07T15:45:05;5.70;99.90
24402;DHT22;12539;48.808;11.292;2022-12-07T15:47:40;5.60;99.90
24402;DHT22;12539;48.808;11.292;2022-12-07T15:50:09;5.80;99.90
24402;DHT22;12539;48.808;11.292;2022-12-07T15:52:35;5.80;99.90
24402;DHT22;12539;48.808;11.292;2022-12-07T15:55:01;5.80;99.90
24402;DHT22;12539;48.808;11.292;2022-12-07T15:57:31;5.70;99.90
24402;DHT22;12539;48.808;11.292;2022-12-07T15:59:57;5.60;99.90
24402;DHT22;12539;48.808;11.292;2022-12-07T16:02:24;5.60;99.90
24402;DHT22;12539;48.808;11.292;2022-12-07T16:04:50;5.60;99.90
24402;DHT22;12539;48.808;11.292;2022-12-07T16:07:16;5.50;99.90
24402;DHT22;12539;48.808;11.292;2022-12-07T16:09:43;5.50;99.90
24402;DHT22;12539;48.808;11.292;2022-12-07T16:12:09;5.50;99.90
24402;DHT22;12539;48.808;11.292;2022-12-07T16:14:36;5.60;99.90
24402;DHT22;12539;48.808;11.292;2022-12-07T16:17:01;5.70;99.90
24402;DHT22;12539;48.808;11.292;2022-12-07T16:19:27;5.80;99.90
24402;DHT22;12539;48.808;11.292;2022-12-07T16:21:53;5.80;99.90
24402;DHT22;12539;48.808;11.292;2022-12-07T16:24:19;5.70;99.90
24402;DHT22;12539;48.808;11.292;2022-12-07T16:26:45;5.60;99.90
24402;DHT22;12539;48.808;11.292;2022-12-07T16:29:12;5.50;99.90
24402;DHT22;12539;48.808;11.292;2022-12-07T16:31:38;5.60;99.90
24402;DHT22;12539;48.808;11.292;2022-12-07T16:34:04;5.70;99.90
24402;DHT22;12539;48.808;11.292;2022-12-07T16:36:30;5.70;99.90
24402;DHT22;12539;48.808;11.292;2022-12-07T16:38:58;5.60;99.90
24402;DHT22;12539;48.808;11.292;2022-12-07T16:41:23;5.60;99.90
24402;DHT22;12539;48.808;11.292;2022-12-07T16:43:51;5.60;99.90
24402;DHT22;12539;48.808;11.292;2022-12-07T16:46:17;5.60;99.90
24402;DHT22;12539;48.808;11.292;2022-12-07T16:48:43;5.50;99.90
24402;DHT22;12539;48.808;11.292;2022-12-07T16:51:11;5.50;99.90
24402;DHT22;12539;48.808;11.292;2022-12-07T16:53:39;5.40;99.90
24402;DHT22;12539;48.808;11.292;2022-12-07T16:56:13;5.50;99.90
24402;DHT22;12539;48.808;11.292;2022-12-07T16:58:40;5.50;99.90
24402;DHT22;12539;48.808;11.292;2022-12-07T17:01:15;5.60;99.90
24402;DHT22;12539;48.808;11.292;2022-12-07T17:03:42;5.70;99.90
24402;DHT22;12539;48.808;11.292;2022-12-07T17:06:22;5.70;99.90
24402;DHT22;12539;48.808;11.292;2022-12-07T17:08:49;5.80;99.90
24402;DHT22;12539;48.808;11.292;2022-12-07T17:11:20;5.80;99.90
24402;DHT22;12539;48.808;11.292;2022-12-07T17:13:46;5.80;99.90
24402;DHT22;12539;48.808;11.292;2022-12-07T17:16:31;5.70;99.90
24402;DHT22;12539;48.808;11.292;2022-12-07T17:18:56;5.70;99.90
24402;DHT22;12539;48.808;11.292;2022-12-07T17:21:23;5.60;99.90
24402;DHT22;12539;48.808;11.292;2022-12-07T17:23:49;5.50;99.90
24402;DHT22;12539;48.808;11.292;2022-12-07T17:26:18;5.60;99.90
24402;DHT22;12539;48.808;11.292;2022-12-07T17:28:44;5.60;99.90
24402;DHT22;12539;48.808;11.292;2022-12-07T17:31:12;5.70;99.90
24402;DHT22;12539;48.808;11.292;2022-12-07T17:33:38;5.80;99.90
24402;DHT22;12539;48.808;11.292;2022-12-07T17:36:12;5.90;99.90
24402;DHT22;12539;48.808;11.292;2022-12-07T17:38:38;5.80;99.90
24402;DHT22;12539;48.808;11.292;2022-12-07T17:44:00;5.70;99.90
24402;DHT22;12539;48.808;11.292;2022-12-07T17:46:26;5.80;99.90
24402;DHT22;12539;48.808;11.292;2022-12-07T17:48:56;5.80;99.90
24402;DHT22;12539;48.808;11.292;2022-12-07T17:51:22;5.90;99.90
24402;DHT22;12539;48.808;11.292;2022-12-07T17:54:07;6.00;99.90
24402;DHT22;12539;48.808;11.292;2022-12-07T17:56:33;6.10;99.90
24402;DHT22;12539;48.808;11.292;2022-12-07T17:58:58;6.20;99.90
24402;DHT22;12539;48.808;11.292;2022-12-07T18:01:24;6.10;99.90
24402;DHT22;12539;48.808;11.292;2022-12-07T18:03:50;6.10;99.90
24402;DHT22;12539;48.808;11.292;2022-12-07T18:06:15;6.10;99.90
24402;DHT22;12539;48.808;11.292;2022-12-07T18:08:41;6.00;99.90
24402;DHT22;12539;48.808;11.292;2022-12-07T18:11:07;5.90;99.90